Time,TemperatureF,DewpointF,PressureIn,WindDirection,WindDirectionDegrees,WindSpeedMPH,WindSpeedGustMPH,Humidity,HourlyPrecipIn,Conditions,Clouds,dailyrainin,SoftwareType,DateUTC
2013-07-08 00:02:00,79.0,-99.9,29.97,WSW,252,7.0,11.0,-999,-99.99,,,-99.99,,2013-07-08 04:02:00,
2013-07-08 00:12:00,78.0,-99.9,29.97,WSW,252,7.0,11.0,-999,-99.99,,,-99.99,,2013-07-08 04:12:00,
2013-07-08 00:33:00,78.0,-99.9,29.98,WSW,250,5.0,9.0,-999,-99.99,,,-99.99,,2013-07-08 04:33:00,
2013-07-08 00:42:00,78.0,-99.9,29.98,WSW,257,5.0,9.0,-999,-99.99,,,-99.99,,2013-07-08 04:42:00,
2013-07-08 00:53:00,78.0,-99.9,29.98,WSW,247,4.0,7.0,-999,-99.99,,,-99.99,,2013-07-08 04:53:00,
2013-07-08 01:01:00,77.0,-99.9,29.98,WSW,238,4.0,8.0,-999,-99.99,,,-99.99,,2013-07-08 05:01:00,
2013-07-08 01:22:00,77.0,-99.9,29.98,WSW,240,6.0,8.0,-999,-99.99,,,-99.99,,2013-07-08 05:22:00,
2013-07-08 01:34:00,77.0,-99.9,29.98,WSW,253,4.0,8.0,-999,-99.99,,,-99.99,,2013-07-08 05:34:00,
2013-07-08 01:43:00,76.0,-99.9,29.98,WSW,243,5.0,10.0,-999,-99.99,,,-99.99,,2013-07-08 05:43:00,
2013-07-08 01:53:00,76.0,-99.9,29.98,WSW,242,5.0,12.0,-999,-99.99,,,-99.99,,2013-07-08 05:53:00,
2013-07-08 02:01:00,76.0,-99.9,29.98,WSW,249,7.0,14.0,-999,-99.99,,,-99.99,,2013-07-08 06:01:00,
2013-07-08 02:12:00,76.0,-99.9,29.98,WSW,247,4.0,9.0,-999,-99.99,,,-99.99,,2013-07-08 06:12:00,
2013-07-08 02:22:00,76.0,-99.9,29.98,West,260,6.0,10.0,-999,-99.99,,,-99.99,,2013-07-08 06:22:00,
2013-07-08 02:34:00,75.0,-99.9,29.98,WSW,257,6.0,10.0,-999,-99.99,,,-99.99,,2013-07-08 06:34:00,
2013-07-08 02:43:00,75.0,-99.9,29.98,WSW,249,7.0,13.0,-999,-99.99,,,-99.99,,2013-07-08 06:43:00,
2013-07-08 02:53:00,75.0,-99.9,29.98,WSW,248,6.0,11.0,-999,-99.99,,,-99.99,,2013-07-08 06:53:00,
2013-07-08 03:02:00,75.0,-99.9,29.98,WSW,248,7.0,12.0,-999,-99.99,,,-99.99,,2013-07-08 07:02:00,
2013-07-08 03:12:00,74.0,-99.9,29.98,WSW,258,8.0,13.0,-999,-99.99,,,-99.99,,2013-07-08 07:12:00,
2013-07-08 03:22:00,74.0,-99.9,29.97,West,260,8.0,14.0,-999,-99.99,,,-99.99,,2013-07-08 07:22:00,
2013-07-08 03:34:00,74.0,-99.9,29.97,WSW,257,6.0,9.0,-999,-99.99,,,-99.99,,2013-07-08 07:34:00,
2013-07-08 03:44:00,74.0,-99.9,29.97,WSW,245,4.0,9.0,-999,-99.99,,,-99.99,,2013-07-08 07:44:00,
2013-07-08 03:53:00,74.0,-99.9,29.97,WSW,252,5.0,8.0,-999,-99.99,,,-99.99,,2013-07-08 07:53:00,
2013-07-08 04:02:00,74.0,-99.9,29.97,West,264,7.0,13.0,-999,-99.99,,,-99.99,,2013-07-08 08:02:00,
2013-07-08 04:22:00,73.0,-99.9,29.98,West,261,7.0,10.0,-999,-99.99,,,-99.99,,2013-07-08 08:22:00,
2013-07-08 04:34:00,73.0,-99.9,29.97,WSW,245,7.0,12.0,-999,-99.99,,,-99.99,,2013-07-08 08:34:00,
2013-07-08 04:42:00,73.0,-99.9,29.97,West,265,6.0,10.0,-999,-99.99,,,-99.99,,2013-07-08 08:42:00,
2013-07-08 04:53:00,73.0,-99.9,29.98,WSW,250,6.0,9.0,-999,-99.99,,,-99.99,,2013-07-08 08:53:00,
2013-07-08 05:02:00,73.0,-99.9,29.98,SW,230,3.0,6.0,-999,-99.99,,,-99.99,,2013-07-08 09:02:00,
2013-07-08 05:11:00,73.0,-99.9,29.99,WSW,241,5.0,12.0,-999,-99.99,,,-99.99,,2013-07-08 09:11:00,
2013-07-08 05:22:00,73.0,-99.9,29.98,WSW,237,3.0,6.0,-999,-99.99,,,-99.99,,2013-07-08 09:22:00,
2013-07-08 05:34:00,73.0,-99.9,29.99,WSW,253,3.0,10.0,-999,-99.99,,,-99.99,,2013-07-08 09:34:00,
2013-07-08 05:53:00,73.0,-99.9,29.99,WSW,241,6.0,11.0,-999,-99.99,,,-99.99,,2013-07-08 09:53:00,
2013-07-08 06:02:00,73.0,-99.9,29.99,WSW,247,2.0,5.0,-999,-99.99,,,-99.99,,2013-07-08 10:02:00,
2013-07-08 06:11:00,72.0,-99.9,30.00,SW,234,3.0,9.0,-999,-99.99,,,-99.99,,2013-07-08 10:11:00,
2013-07-08 06:22:00,72.0,-99.9,30.00,SW,223,4.0,8.0,-999,-99.99,,,-99.99,,2013-07-08 10:22:00,
2013-07-08 06:34:00,72.0,-99.9,30.00,SW,228,2.0,7.0,-999,-99.99,,,-99.99,,2013-07-08 10:34:00,
2013-07-08 06:53:00,73.0,-99.9,30.01,SW,222,4.0,8.0,-999,-99.99,,,-99.99,,2013-07-08 10:53:00,
2013-07-08 07:02:00,73.0,-99.9,30.02,SW,224,4.0,10.0,-999,-99.99,,,-99.99,,2013-07-08 11:02:00,
2013-07-08 07:34:00,74.0,-99.9,30.01,WSW,252,4.0,7.0,-999,-99.99,,,-99.99,,2013-07-08 11:34:00,
2013-07-08 07:43:00,74.0,-99.9,30.01,WSW,241,6.0,9.0,-999,-99.99,,,-99.99,,2013-07-08 11:43:00,
2013-07-08 07:53:00,74.0,-99.9,30.02,West,266,6.0,9.0,-999,-99.99,,,-99.99,,2013-07-08 11:53:00,
2013-07-08 08:02:00,75.0,-99.9,30.02,WSW,247,5.0,9.0,-999,-99.99,,,-99.99,,2013-07-08 12:02:00,
2013-07-08 08:43:00,76.0,-99.9,30.01,West,271,5.0,7.0,-999,-99.99,,,-99.99,,2013-07-08 12:43:00,
2013-07-08 08:53:00,76.0,-99.9,30.01,WNW,286,6.0,8.0,-999,-99.99,,,-99.99,,2013-07-08 12:53:00,
2013-07-08 09:02:00,77.0,-99.9,30.01,WNW,282,6.0,8.0,-999,-99.99,,,-99.99,,2013-07-08 13:02:00,
2013-07-08 09:33:00,78.0,-99.9,30.02,WNW,303,7.0,10.0,-999,-99.99,,,-99.99,,2013-07-08 13:33:00,
2013-07-08 09:43:00,78.0,-99.9,30.02,NW,309,5.0,8.0,-999,-99.99,,,-99.99,,2013-07-08 13:43:00,
2013-07-08 10:34:00,81.0,-99.9,30.01,WNW,289,2.0,4.0,-999,-99.99,,,-99.99,,2013-07-08 14:34:00,
2013-07-08 10:43:00,82.0,-99.9,30.01,WNW,292,2.0,3.0,-999,-99.99,,,-99.99,,2013-07-08 14:43:00,
2013-07-08 11:02:00,82.0,-99.9,30.01,WNW,291,4.0,6.0,-999,-99.99,,,-99.99,,2013-07-08 15:02:00,
2013-07-08 11:12:00,83.0,-99.9,30.01,West,280,5.0,9.0,-999,-99.99,,,-99.99,,2013-07-08 15:12:00,
2013-07-08 12:02:00,85.0,-99.9,30.01,WSW,249,8.0,12.0,-999,-99.99,,,-99.99,,2013-07-08 16:02:00,
2013-07-08 12:43:00,85.0,-99.9,30.01,West,263,7.0,14.0,-999,-99.99,,,-99.99,,2013-07-08 16:43:00,
2013-07-08 13:08:00,86.0,-99.9,30.01,West,270,11.0,17.0,-999,-99.99,,,-99.99,,2013-07-08 17:08:00,
2013-07-08 13:15:00,86.0,-99.9,30.01,West,270,6.0,9.0,-999,-99.99,,,-99.99,,2013-07-08 17:15:00,
2013-07-08 13:48:00,87.0,-99.9,30.01,West,268,13.0,19.0,-999,-99.99,,,-99.99,,2013-07-08 17:48:00,
2013-07-08 15:03:00,87.0,-99.9,29.99,West,281,8.0,12.0,-999,-99.99,,,-99.99,,2013-07-08 19:03:00,
2013-07-08 15:36:00,87.0,-99.9,29.98,West,279,6.0,10.0,-999,-99.99,,,-99.99,,2013-07-08 19:36:00,
2013-07-08 15:43:00,87.0,-99.9,29.98,West,279,6.0,10.0,-999,-99.99,,,-99.99,,2013-07-08 19:43:00,
2013-07-08 16:09:00,88.0,-99.9,29.98,WSW,256,6.0,10.0,-999,-99.99,,,-99.99,,2013-07-08 20:09:00,
2013-07-08 16:34:00,89.0,-99.9,29.97,WSW,247,5.0,11.0,-999,-99.99,,,-99.99,,2013-07-08 20:34:00,
2013-07-08 16:50:00,88.0,-99.9,29.97,West,268,9.0,12.0,-999,-99.99,,,-99.99,,2013-07-08 20:50:00,
2013-07-08 17:10:00,89.0,-99.9,29.96,WSW,257,9.0,14.0,-999,-99.99,,,-99.99,,2013-07-08 21:10:00,
2013-07-08 17:48:00,88.0,-99.9,29.95,WSW,242,6.0,10.0,-999,-99.99,,,-99.99,,2013-07-08 21:48:00,
2013-07-08 17:59:00,88.0,-99.9,29.96,WSW,249,8.0,15.0,-999,-99.99,,,-99.99,,2013-07-08 21:59:00,
2013-07-08 18:12:00,89.0,-99.9,29.96,SW,232,6.0,10.0,-999,-99.99,,,-99.99,,2013-07-08 22:12:00,
2013-07-08 18:18:00,88.0,-99.9,29.95,SW,218,4.0,8.0,-999,-99.99,,,-99.99,,2013-07-08 22:18:00,
2013-07-08 18:48:00,86.0,-99.9,29.95,SSW,211,8.0,13.0,-999,-99.99,,,-99.99,,2013-07-08 22:48:00,
2013-07-08 19:00:00,86.0,-99.9,29.96,SW,214,8.0,13.0,-999,-99.99,,,-99.99,,2013-07-08 23:00:00,
2013-07-08 19:06:00,85.0,-99.9,29.96,SW,214,9.0,16.0,-999,-99.99,,,-99.99,,2013-07-08 23:06:00,
2013-07-08 19:18:00,85.0,-99.9,29.97,SW,217,5.0,12.0,-999,-99.99,,,-99.99,,2013-07-08 23:18:00,
2013-07-08 19:36:00,85.0,-99.9,29.97,SSW,207,4.0,8.0,-999,-99.99,,,-99.99,,2013-07-08 23:36:00,
2013-07-08 20:06:00,84.0,-99.9,29.98,SW,231,3.0,5.0,-999,-99.99,,,-99.99,,2013-07-09 00:06:00,
2013-07-08 21:18:00,-999.0,-99.9,30.01,WSW,242,5.0,9.0,-999,-99.99,,,-99.99,,2013-07-09 01:18:00,
2013-07-08 23:13:00,79.0,-99.9,30.03,SW,219,3.0,10.0,-999,-99.99,,,-99.99,,2013-07-09 03:13:00,
2013-07-08 23:19:00,79.0,-99.9,30.03,SW,232,5.0,11.0,-999,-99.99,,,-99.99,,2013-07-09 03:19:00,
2013-07-08 23:27:00,79.0,-99.9,30.03,SW,230,3.0,8.0,-999,-99.99,,,-99.99,,2013-07-09 03:27:00,